Time;durP1;ratioP1;P1;durP2;ratioP2;P2;SDS_P1;SDS_P2;PMS_P1;PMS_P2;Temp;Humidity;BMP_temperature;BMP_pressure;BME280_temperature;BME280_humidity;BME280_pressure;Samples;Min_cycle;Max_cycle;Signal;HPM_P1;HPM_P2
2023/06/21 00:00:34;;;;;;;30.70;21.57;;;;;;;19.33;100.00;100653.50;4982890;28;20029;-73
2023/06/21 00:03:00;;;;;;;24.37;20.43;;;;;;;19.38;100.00;100643.66;4975907;28;20064;-73
2023/06/21 00:05:26;;;;;;;32.40;21.73;;;;;;;19.42;100.00;100633.22;4992281;28;20030;-73
2023/06/21 00:07:54;;;;;;;25.23;20.92;;;;;;;19.40;100.00;100628.00;4984791;28;20061;-73
2023/06/21 00:10:23;;;;;;;26.55;20.33;;;;;;;19.32;100.00;100632.91;5002099;28;20446;-73
2023/06/21 00:12:52;;;;;;;25.38;20.58;;;;;;;19.29;100.00;100634.19;5004562;28;20052;-73
2023/06/21 00:15:18;;;;;;;29.27;21.90;;;;;;;19.37;100.00;100619.53;5016416;28;20044;-73
2023/06/21 00:17:44;;;;;;;25.38;21.70;;;;;;;19.38;100.00;100611.16;5013384;28;20026;-73
2023/06/21 00:20:10;;;;;;;28.37;23.70;;;;;;;19.42;100.00;100614.25;5023753;28;20529;-73
2023/06/21 00:22:36;;;;;;;30.77;25.23;;;;;;;19.24;100.00;100619.66;5022294;28;20025;-73
2023/06/21 00:25:02;;;;;;;26.23;20.88;;;;;;;19.20;100.00;100649.03;5005081;28;20041;-73
2023/06/21 00:27:28;;;;;;;28.15;22.83;;;;;;;19.14;100.00;100633.69;5019838;28;20034;-73
2023/06/21 00:29:53;;;;;;;23.00;19.57;;;;;;;19.06;100.00;100639.34;5004167;28;20514;-73
2023/06/21 00:32:20;;;;;;;26.08;21.35;;;;;;;19.09;100.00;100639.75;5002397;28;20608;-73
2023/06/21 00:34:47;;;;;;;26.80;21.02;;;;;;;19.16;100.00;100631.59;4985046;28;20030;-73
2023/06/21 00:37:16;;;;;;;26.70;22.23;;;;;;;19.11;100.00;100621.44;5008299;28;20045;-73
2023/06/21 00:39:42;;;;;;;23.52;20.13;;;;;;;19.14;100.00;100625.56;4974843;28;20042;-73
2023/06/21 00:42:08;;;;;;;25.02;19.75;;;;;;;19.19;100.00;100617.59;4978079;28;20827;-73
2023/06/21 00:44:35;;;;;;;24.35;20.45;;;;;;;19.18;100.00;100615.97;5010175;28;20096;-73
2023/06/21 00:47:00;;;;;;;27.42;20.80;;;;;;;19.28;100.00;100612.75;5017404;28;20026;-73
2023/06/21 00:49:27;;;;;;;24.70;20.80;;;;;;;19.29;100.00;100596.28;4990207;28;20545;-72
2023/06/21 00:51:57;;;;;;;27.55;21.52;;;;;;;19.13;100.00;100592.28;4990656;28;20022;-72
2023/06/21 00:54:26;;;;;;;31.48;20.83;;;;;;;19.22;100.00;100595.50;4990466;28;20674;-72
2023/06/21 00:56:52;;;;;;;34.10;26.10;;;;;;;19.30;100.00;100592.53;4992346;28;20106;-71
2023/06/21 00:59:17;;;;;;;36.30;26.03;;;;;;;19.18;100.00;100594.31;4990466;28;20080;-71
2023/06/21 01:01:42;;;;;;;36.17;27.07;;;;;;;18.94;100.00;100610.34;4990386;28;20281;-71
2023/06/21 01:04:09;;;;;;;38.70;29.17;;;;;;;19.00;100.00;100621.31;4999779;28;20481;-70
2023/06/21 01:07:27;;;;;;;45.38;29.08;;;;;;;18.66;100.00;100645.03;5014729;28;20501;-72
2023/06/21 01:10:09;;;;;;;36.30;29.33;;;;;;;18.58;100.00;100651.53;4911254;29;20036;-73
2023/06/21 01:12:55;;;;;;;45.92;32.72;;;;;;;18.44;100.00;100639.16;4891557;29;20051;-72
2023/06/21 01:15:26;;;;;;;47.08;32.78;;;;;;;18.41;100.00;100626.09;4978085;28;20050;-73
2023/06/21 01:17:53;;;;;;;47.22;34.80;;;;;;;18.45;100.00;100624.59;5013466;28;20044;-74
2023/06/21 01:20:28;;;;;;;49.30;34.88;;;;;;;18.37;100.00;100641.91;5001064;28;20076;-73
2023/06/21 01:23:31;;;;;;;44.83;32.60;;;;;;;18.39;100.00;100661.44;4989803;28;20037;-75
2023/06/21 01:26:09;;;;;;;47.97;35.50;;;;;;;18.41;100.00;100648.53;4987589;28;20041;-75
2023/06/21 01:29:11;;;;;;;49.33;35.50;;;;;;;18.37;100.00;100643.78;4986349;28;20537;-73
2023/06/21 01:31:39;;;;;;;48.78;35.47;;;;;;;18.42;100.00;100622.31;4989921;28;20030;-75
2023/06/21 01:34:05;;;;;;;47.47;37.30;;;;;;;18.46;100.00;100624.38;4989955;28;20037;-74
2023/06/21 01:36:32;;;;;;;45.55;32.42;;;;;;;18.42;100.00;100628.56;5011494;28;20146;-75
2023/06/21 01:38:57;;;;;;;39.90;32.17;;;;;;;18.45;100.00;100638.94;4990502;28;20035;-74
2023/06/21 01:41:26;;;;;;;54.00;36.87;;;;;;;18.42;100.00;100646.66;5007529;28;20038;-75
2023/06/21 01:43:53;;;;;;;44.72;31.90;;;;;;;18.44;100.00;100642.69;4990266;28;20034;-74
2023/06/21 01:46:22;;;;;;;38.40;29.42;;;;;;;18.26;100.00;100643.41;4976910;28;20044;-73
2023/06/21 01:48:48;;;;;;;40.03;28.42;;;;;;;18.10;100.00;100633.09;4977496;28;20051;-73
2023/06/21 01:51:16;;;;;;;35.65;24.40;;;;;;;17.91;100.00;100632.97;4994026;28;20478;-73
2023/06/21 01:53:42;;;;;;;33.95;25.95;;;;;;;17.93;100.00;100646.25;4987010;28;20044;-72
2023/06/21 01:56:11;;;;;;;29.30;23.45;;;;;;;17.91;100.00;100645.63;4994620;28;20100;-72
2023/06/21 01:58:36;;;;;;;33.78;26.73;;;;;;;17.90;100.00;100652.09;5003055;28;20038;-74
2023/06/21 02:01:03;;;;;;;34.45;25.52;;;;;;;17.87;100.00;100649.81;4983431;28;20391;-72
2023/06/21 02:03:30;;;;;;;31.65;24.92;;;;;;;17.81;100.00;100653.34;5002772;28;20132;-73
2023/06/21 02:06:00;;;;;;;29.02;22.52;;;;;;;17.63;100.00;100635.94;4984228;28;20174;-73
2023/06/21 02:08:27;;;;;;;29.63;22.77;;;;;;;17.64;100.00;100642.97;5014543;28;20072;-73
2023/06/21 02:10:53;;;;;;;31.00;22.85;;;;;;;17.63;100.00;100630.53;5012302;28;20589;-72
2023/06/21 02:13:18;;;;;;;27.33;20.27;;;;;;;17.69;100.00;100640.47;4992672;28;20025;-72
2023/06/21 02:15:46;;;;;;;27.80;20.73;;;;;;;17.68;100.00;100630.72;5011039;28;20022;-73
2023/06/21 02:18:12;;;;;;;23.98;19.00;;;;;;;17.67;100.00;100625.53;4982785;28;20221;-72
2023/06/21 02:20:39;;;;;;;25.27;18.52;;;;;;;17.66;100.00;100624.72;5004408;28;20028;-73
2023/06/21 02:23:05;;;;;;;24.37;17.07;;;;;;;17.60;100.00;100614.75;4999019;28;20037;-74
2023/06/21 02:25:32;;;;;;;;;;;;;;;17.75;100.00;100619.06;4999586;28;20033;-73
2023/06/21 02:27:58;;;;;;;23.60;17.08;;;;;;;17.76;100.00;100618.03;5019788;28;19921;-73
2023/06/21 02:30:24;;;;;;;25.20;16.73;;;;;;;17.75;100.00;100617.22;4998320;28;20076;-72
2023/06/21 02:32:53;;;;;;;24.42;16.83;;;;;;;17.66;100.00;100632.81;4998970;28;20038;-72
2023/06/21 02:35:18;;;;;;;24.00;17.60;;;;;;;17.67;100.00;100634.44;4992209;28;20022;-72
2023/06/21 02:37:44;;;;;;;20.83;16.33;;;;;;;17.55;100.00;100646.13;4997456;28;20052;-73
2023/06/21 02:40:10;;;;;;;15.60;12.57;;;;;;;17.48;100.00;100638.03;4987435;28;20272;-73
2023/06/21 02:42:37;;;;;;;19.92;14.48;;;;;;;17.50;100.00;100638.66;4985708;28;20039;-73
2023/06/21 02:45:04;;;;;;;18.92;15.50;;;;;;;17.41;100.00;100627.25;4998750;28;20908;-72
2023/06/21 02:47:29;;;;;;;16.55;11.60;;;;;;;17.45;100.00;100639.28;5016682;28;20100;-73
2023/06/21 02:49:55;;;;;;;15.88;12.10;;;;;;;17.35;100.00;100627.25;4979446;28;20411;-73
2023/06/21 02:52:20;;;;;;;17.25;12.80;;;;;;;17.27;100.00;100631.00;4998102;28;20037;-73
2023/06/21 02:54:46;;;;;;;16.57;11.97;;;;;;;17.21;100.00;100637.25;4998152;28;20026;-73
2023/06/21 02:57:11;;;;;;;14.27;11.13;;;;;;;17.22;100.00;100649.69;5003136;28;20124;-73
2023/06/21 02:59:37;;;;;;;14.23;10.38;;;;;;;17.20;100.00;100651.78;5002246;28;20040;-73
2023/06/21 03:02:05;;;;;;;14.17;10.00;;;;;;;17.26;100.00;100657.16;4983264;28;20053;-73
2023/06/21 03:04:31;;;;;;;16.92;10.70;;;;;;;17.27;100.00;100658.00;4983893;28;20466;-73
2023/06/21 03:06:56;;;;;;;12.87;9.20;;;;;;;17.24;100.00;100661.13;4997446;28;20040;-73
2023/06/21 03:09:23;;;;;;;14.00;10.10;;;;;;;17.17;100.00;100663.81;4997980;28;20276;-72
2023/06/21 03:11:49;;;;;;;12.85;8.75;;;;;;;17.23;100.00;100663.00;5020486;28;20700;-73
2023/06/21 03:14:14;;;;;;;12.57;8.20;;;;;;;17.28;100.00;100665.88;5003014;28;20096;-73
2023/06/21 03:16:41;;;;;;;8.82;6.85;;;;;;;17.23;100.00;100672.94;4993111;28;20495;-73
2023/06/21 03:19:08;;;;;;;9.00;6.40;;;;;;;17.20;100.00;100674.19;4990724;28;20056;-73
2023/06/21 03:21:34;;;;;;;9.50;6.15;;;;;;;17.21;100.00;100678.56;4986114;28;20059;-72
2023/06/21 03:23:59;;;;;;;9.65;6.65;;;;;;;17.28;100.00;100682.06;4980058;28;20475;-73
2023/06/21 03:26:25;;;;;;;8.07;6.63;;;;;;;17.29;100.00;100677.50;4984970;28;20625;-73
2023/06/21 03:28:50;;;;;;;12.82;7.13;;;;;;;17.30;100.00;100682.69;4976654;28;20025;-73
2023/06/21 03:31:15;;;;;;;10.37;8.27;;;;;;;17.30;100.00;100676.44;5002975;28;20048;-73
2023/06/21 03:33:41;;;;;;;9.17;7.60;;;;;;;17.30;100.00;100681.84;5002871;28;20036;-72
2023/06/21 03:36:06;;;;;;;9.53;7.07;;;;;;;17.22;100.00;100688.28;5022058;28;20518;-73
2023/06/21 03:38:33;;;;;;;10.02;6.38;;;;;;;17.12;100.00;100687.88;4997972;28;20518;-72
2023/06/21 03:40:59;;;;;;;8.68;5.65;;;;;;;17.16;100.00;100693.69;5001280;28;20037;-73
2023/06/21 03:43:26;;;;;;;7.07;5.40;;;;;;;17.19;100.00;100696.81;5002410;28;20033;-73
2023/06/21 03:45:52;;;;;;;;;;;;;;;17.15;100.00;100709.03;4998203;28;20045;-73
2023/06/21 03:48:18;;;;;;;11.20;6.15;;;;;;;17.18;100.00;100708.63;5017799;28;19913;-72
2023/06/21 03:50:46;;;;;;;6.83;5.77;;;;;;;17.24;100.00;100704.28;5004777;28;20044;-72
2023/06/21 03:53:13;;;;;;;10.13;5.68;;;;;;;17.29;100.00;100705.31;4986596;28;20109;-73
2023/06/21 03:55:38;;;;;;;8.88;5.40;;;;;;;17.23;100.00;100699.91;5004967;28;20144;-72
2023/06/21 03:58:06;;;;;;;8.25;4.97;;;;;;;17.39;100.00;100712.16;5002080;28;20037;-73
2023/06/21 04:00:31;;;;;;;5.60;4.47;;;;;;;17.46;100.00;100707.59;4981546;28;20400;-73
2023/06/21 04:02:56;;;;;;;5.70;4.07;;;;;;;17.50;100.00;100706.13;4989809;28;20403;-72
2023/06/21 04:05:22;;;;;;;7.63;3.67;;;;;;;17.61;100.00;100707.38;4996773;28;20069;-73
2023/06/21 04:07:50;;;;;;;9.13;4.10;;;;;;;17.77;100.00;100701.53;4985768;28;20099;-73
2023/06/21 04:10:16;;;;;;;9.27;4.75;;;;;;;17.85;100.00;100695.94;4984253;28;20543;-73
2023/06/21 04:12:42;;;;;;;7.60;4.15;;;;;;;17.79;100.00;100687.81;5000073;28;20053;-73
2023/06/21 04:15:08;;;;;;;4.28;3.58;;;;;;;17.81;100.00;100677.66;4981729;28;20041;-74
2023/06/21 04:17:36;;;;;;;4.57;3.10;;;;;;;18.00;100.00;100675.94;4989579;28;20045;-73
2023/06/21 04:20:07;;;;;;;5.72;3.40;;;;;;;17.96;100.00;100667.44;4986663;28;20040;-73
2023/06/21 04:22:33;;;;;;;5.20;3.63;;;;;;;18.10;100.00;100660.94;5004273;28;20065;-72
2023/06/21 04:24:58;;;;;;;7.27;3.43;;;;;;;18.18;100.00;100659.03;4986924;28;20527;-73
2023/06/21 04:27:24;;;;;;;4.77;2.60;;;;;;;18.11;100.00;100654.50;5019583;28;20455;-73
2023/06/21 04:29:50;;;;;;;4.40;3.25;;;;;;;18.07;100.00;100657.84;4998781;28;20079;-72
2023/06/21 04:32:15;;;;;;;6.70;3.03;;;;;;;17.98;100.00;100659.09;5002642;28;20033;-74
2023/06/21 04:34:43;;;;;;;3.83;2.93;;;;;;;18.04;100.00;100656.38;4987555;28;20493;-73
2023/06/21 04:37:09;;;;;;;5.50;2.70;;;;;;;18.18;100.00;100669.84;5022742;28;20391;-73
2023/06/21 04:39:35;;;;;;;5.65;3.25;;;;;;;18.33;100.00;100673.09;4999719;28;20065;-72
2023/06/21 04:42:00;;;;;;;6.47;3.00;;;;;;;18.30;100.00;100673.53;4999147;28;20485;-73
2023/06/21 04:44:29;;;;;;;8.88;3.65;;;;;;;18.31;100.00;100667.91;4977839;28;20264;-74
2023/06/21 04:46:55;;;;;;;8.43;3.80;;;;;;;18.16;100.00;100658.44;5014091;28;20037;-72
2023/06/21 04:49:21;;;;;;;6.35;4.40;;;;;;;18.28;100.00;100676.44;4994378;28;20042;-72
2023/06/21 04:51:46;;;;;;;5.38;3.60;;;;;;;18.16;100.00;100666.53;5000562;28;20034;-72
2023/06/21 04:54:11;;;;;;;6.30;3.67;;;;;;;18.44;100.00;100671.59;4985064;28;20040;-72
2023/06/21 04:56:37;;;;;;;7.67;2.83;;;;;;;18.67;100.00;100676.47;5012656;28;20452;-72
2023/06/21 04:59:03;;;;;;;7.83;4.53;;;;;;;18.80;100.00;100678.25;4998646;28;20043;-72
2023/06/21 05:01:30;;;;;;;9.05;4.63;;;;;;;18.93;100.00;100679.00;4993823;28;20491;-72
2023/06/21 05:03:56;;;;;;;8.40;4.82;;;;;;;18.82;100.00;100665.34;5016941;28;20499;-72
2023/06/21 05:06:23;;;;;;;19.63;5.67;;;;;;;19.11;100.00;100674.72;4997043;28;20112;-72
2023/06/21 05:08:48;;;;;;;6.82;5.25;;;;;;;19.01;100.00;100668.97;5003236;28;20472;-72
2023/06/21 05:11:14;;;;;;;11.40;6.07;;;;;;;19.00;100.00;100665.44;5003230;28;20483;-72
2023/06/21 05:13:39;;;;;;;9.57;5.68;;;;;;;19.01;100.00;100672.50;4999075;28;20032;-72
2023/06/21 05:16:04;;;;;;;8.63;5.63;;;;;;;19.01;100.00;100669.81;5022484;28;20028;-72
2023/06/21 05:18:30;;;;;;;8.47;5.33;;;;;;;19.20;100.00;100668.00;4995197;28;20125;-72
2023/06/21 05:20:55;;;;;;;6.53;4.77;;;;;;;19.50;100.00;100680.81;4988509;28;20045;-72
2023/06/21 05:23:21;;;;;;;9.00;5.83;;;;;;;19.48;100.00;100674.78;5013544;28;20487;-72
2023/06/21 05:25:46;;;;;;;8.10;4.65;;;;;;;19.47;100.00;100679.38;4999313;28;20065;-72
2023/06/21 05:28:12;;;;;;;8.52;4.65;;;;;;;19.78;100.00;100680.34;5019148;28;20036;-72
2023/06/21 05:30:37;;;;;;;11.00;5.70;;;;;;;19.81;100.00;100688.06;4984673;28;20041;-73
2023/06/21 05:33:02;;;;;;;8.27;5.87;;;;;;;19.92;100.00;100681.84;4985045;28;20025;-73
2023/06/21 05:35:28;;;;;;;10.60;5.20;;;;;;;20.04;100.00;100679.22;4998618;28;20034;-72
2023/06/21 05:37:53;;;;;;;7.73;4.97;;;;;;;20.03;100.00;100683.81;4993784;28;20029;-72
2023/06/21 05:40:22;;;;;;;5.85;4.53;;;;;;;20.24;100.00;100685.22;4969816;28;20113;-73
2023/06/21 05:42:48;;;;;;;7.65;4.40;;;;;;;20.49;100.00;100686.19;5000420;28;20142;-73
2023/06/21 05:45:13;;;;;;;7.73;4.43;;;;;;;20.54;100.00;100673.59;4989295;28;20034;-73
2023/06/21 05:47:39;;;;;;;5.43;3.75;;;;;;;20.62;100.00;100684.13;4990977;28;20029;-73
2023/06/21 05:50:05;;;;;;;6.73;4.80;;;;;;;20.35;100.00;100666.56;4991704;28;20038;-73
2023/06/21 05:52:30;;;;;;;6.47;4.15;;;;;;;20.45;100.00;100688.53;4984747;28;20027;-73
2023/06/21 05:54:55;;;;;;;5.10;3.97;;;;;;;20.68;100.00;100693.25;5008648;28;20060;-74
2023/06/21 05:57:21;;;;;;;7.45;3.95;;;;;;;20.66;100.00;100673.66;5011914;28;20478;-74
2023/06/21 05:59:47;;;;;;;6.63;3.70;;;;;;;20.57;100.00;100672.31;5011474;28;20125;-73
2023/06/21 06:02:12;;;;;;;6.78;4.28;;;;;;;20.32;100.00;100670.56;4993399;28;20025;-74
2023/06/21 06:04:38;;;;;;;5.93;4.30;;;;;;;20.29;100.00;100692.69;4993027;28;20384;-74
2023/06/21 06:07:04;;;;;;;;;;;;;;;20.43;100.00;100715.03;4996556;28;20034;-73
2023/06/21 06:09:30;;;;;;;6.45;5.85;;;;;;;20.29;100.00;100694.56;4991285;28;19913;-73
2023/06/21 06:11:56;;;;;;;10.10;6.83;;;;;;;20.21;100.00;100710.09;4973334;28;20096;-73
2023/06/21 06:14:25;;;;;;;7.30;6.50;;;;;;;20.04;100.00;100719.88;4973855;28;20076;-73
2023/06/21 06:16:50;;;;;;;11.02;7.80;;;;;;;20.11;100.00;100750.47;5008044;28;20062;-73
2023/06/21 06:19:16;;;;;;;10.45;6.75;;;;;;;20.06;100.00;100739.44;5006502;28;20073;-73
2023/06/21 06:21:41;;;;;;;9.93;7.70;;;;;;;19.95;100.00;100759.19;4989293;28;20049;-73
2023/06/21 06:24:07;;;;;;;11.55;8.43;;;;;;;19.82;100.00;100752.00;4996645;28;20116;-72
2023/06/21 06:26:32;;;;;;;12.93;9.33;;;;;;;20.05;100.00;100789.28;4988520;28;20041;-73
2023/06/21 06:28:57;;;;;;;10.43;8.57;;;;;;;20.05;100.00;100783.88;4988583;28;20447;-73
2023/06/21 06:31:25;;;;;;;14.53;11.27;;;;;;;19.81;100.00;100778.28;4990915;28;20046;-73
2023/06/21 06:33:54;;;;;;;15.25;10.35;;;;;;;19.60;100.00;100808.44;5008152;28;20399;-73
2023/06/21 06:36:19;;;;;;;14.18;11.52;;;;;;;19.52;100.00;100816.81;4988643;28;20092;-74
2023/06/21 06:38:46;;;;;;;14.93;13.35;;;;;;;19.19;100.00;100818.69;4988914;28;20486;-73
2023/06/21 06:41:12;;;;;;;15.23;13.02;;;;;;;19.19;100.00;100847.63;4988888;28;20063;-73
2023/06/21 06:43:37;;;;;;;17.45;14.05;;;;;;;19.18;100.00;100859.53;4972337;28;20958;-73
2023/06/21 06:46:03;;;;;;;17.33;13.93;;;;;;;19.18;100.00;100854.09;5015976;28;20030;-73
2023/06/21 06:48:28;;;;;;;20.37;13.10;;;;;;;19.17;100.00;100866.81;4981020;28;20433;-73
2023/06/21 06:50:53;;;;;;;16.63;12.53;;;;;;;19.30;100.00;100884.84;4988461;28;20037;-73
2023/06/21 06:53:19;;;;;;;16.77;13.87;;;;;;;19.29;100.00;100885.06;4988531;28;20042;-73
2023/06/21 06:55:44;;;;;;;14.67;11.97;;;;;;;19.38;100.00;100895.41;4979715;28;20044;-72
2023/06/21 06:58:10;;;;;;;22.60;14.10;;;;;;;19.28;100.00;100876.09;4988144;28;20034;-72
2023/06/21 07:00:35;;;;;;;25.02;16.85;;;;;;;19.49;100.00;100882.25;5006920;28;20034;-72
2023/06/21 07:03:01;;;;;;;24.47;17.47;;;;;;;19.48;100.00;100875.16;5006578;28;20252;-73
2023/06/21 07:05:26;;;;;;;21.50;16.27;;;;;;;19.82;100.00;100880.16;4988155;28;20986;-73
2023/06/21 07:07:53;;;;;;;22.85;16.30;;;;;;;20.13;100.00;100872.19;5005838;28;20466;-73
2023/06/21 07:10:19;;;;;;;24.73;18.45;;;;;;;20.36;100.00;100856.09;5005865;28;20627;-73
2023/06/21 07:12:45;;;;;;;20.38;15.35;;;;;;;20.75;100.00;100850.50;5014024;28;20483;-73
2023/06/21 07:15:10;;;;;;;23.25;17.20;;;;;;;20.62;100.00;100822.47;5015419;28;20064;-73
2023/06/21 07:17:36;;;;;;;20.83;16.00;;;;;;;20.50;100.00;100826.13;4989186;28;20093;-74
2023/06/21 07:20:01;;;;;;;24.23;17.47;;;;;;;20.46;100.00;100828.47;5006472;28;20738;-73
2023/06/21 07:22:27;;;;;;;25.02;17.95;;;;;;;20.17;100.00;100830.03;4987455;28;20111;-73
2023/06/21 07:24:52;;;;;;;26.13;17.93;;;;;;;20.16;100.00;100840.06;5005165;28;20045;-73
2023/06/21 07:27:17;;;;;;;22.40;16.80;;;;;;;20.61;100.00;100875.06;5000617;28;20049;-73
2023/06/21 07:29:44;;;;;;;24.70;17.63;;;;;;;20.80;100.00;100839.78;5010917;28;20046;-74
2023/06/21 07:32:09;;;;;;;17.48;14.52;;;;;;;21.45;100.00;100842.69;4968450;28;20069;-73
2023/06/21 07:34:34;;;;;;;19.45;14.90;;;;;;;21.84;100.00;100806.94;4998482;28;20490;-74
2023/06/21 07:37:00;;;;;;;23.30;15.23;;;;;;;22.18;100.00;100756.34;5005021;28;20029;-74
2023/06/21 07:39:25;;;;;;;23.10;17.27;;;;;;;21.74;100.00;100677.09;4987979;28;20038;-74
2023/06/21 07:41:51;;;;;;;14.95;13.20;;;;;;;23.07;100.00;100698.78;4975392;28;20379;-75
2023/06/21 07:44:17;;;;;;;19.23;14.37;;;;;;;23.67;100.00;100584.69;5005333;28;20538;-74
2023/06/21 07:46:43;;;;;;;20.08;15.23;;;;;;;23.59;100.00;100480.50;4987542;28;20144;-74
2023/06/21 07:49:08;;;;;;;17.75;12.65;;;;;;;23.39;100.00;100529.31;5005388;28;20026;-74
2023/06/21 07:51:34;;;;;;;18.80;12.57;;;;;;;22.46;100.00;100586.94;5005469;28;20520;-74
2023/06/21 07:53:59;;;;;;;16.83;14.70;;;;;;;22.47;100.00;100623.13;4987442;28;20030;-74
2023/06/21 07:56:25;;;;;;;17.38;13.77;;;;;;;22.48;100.00;100660.97;4973085;28;20041;-74
2023/06/21 07:58:50;;;;;;;17.63;13.30;;;;;;;22.71;100.00;100664.63;5012852;28;20033;-74
2023/06/21 08:01:15;;;;;;;14.57;12.33;;;;;;;22.83;100.00;100670.00;5013282;28;20037;-74
2023/06/21 08:03:43;;;;;;;17.00;14.00;;;;;;;22.98;100.00;100643.06;4996700;28;20061;-75
2023/06/21 08:06:09;;;;;;;17.67;12.65;;;;;;;22.72;100.00;100648.06;4990555;28;20038;-74
2023/06/21 08:08:34;;;;;;;15.63;12.07;;;;;;;22.87;100.00;100644.78;4991958;28;20036;-74
2023/06/21 08:10:59;;;;;;;17.30;13.73;;;;;;;22.98;100.00;100648.50;4992064;28;20029;-74
2023/06/21 08:13:26;;;;;;;14.70;11.10;;;;;;;22.95;100.00;100659.88;5000780;28;20497;-75
2023/06/21 08:15:52;;;;;;;13.18;11.25;;;;;;;22.54;100.00;100632.78;5010030;28;20056;-74
2023/06/21 08:18:17;;;;;;;18.30;12.85;;;;;;;22.41;100.00;100671.19;5002920;28;20099;-74
2023/06/21 08:20:42;;;;;;;17.35;13.27;;;;;;;22.26;100.00;100635.50;5018658;28;20041;-74
2023/06/21 08:23:08;;;;;;;14.67;11.10;;;;;;;22.68;100.00;100676.81;4999626;28;20065;-74
2023/06/21 08:25:35;;;;;;;14.23;11.00;;;;;;;22.60;100.00;100649.22;4997435;28;20327;-74
2023/06/21 08:28:01;;;;;;;14.57;9.70;;;;;;;22.64;100.00;100723.81;5001436;28;20510;-74
2023/06/21 08:30:28;;;;;;;9.98;8.90;;;;;;;22.55;100.00;100726.13;5017020;28;20044;-74
2023/06/21 08:32:53;;;;;;;14.30;10.23;;;;;;;22.82;100.00;100660.19;4971597;28;20026;-74
2023/06/21 08:35:18;;;;;;;13.60;10.53;;;;;;;23.77;100.00;100552.97;5016068;28;20029;-74
2023/06/21 08:37:58;;;;;;;10.67;8.00;;;;;;;23.63;100.00;100486.28;5017153;28;20057;-73
2023/06/21 08:40:31;;;;;;;10.77;6.43;;;;;;;23.88;100.00;100523.09;5011893;28;20034;-74
2023/06/21 08:42:57;;;;;;;12.57;8.75;;;;;;;23.63;100.00;100379.19;5001152;28;20034;-74
2023/06/21 08:45:22;;;;;;;11.80;9.20;;;;;;;23.55;100.00;100415.88;5017991;28;20664;-74
2023/06/21 08:47:51;;;;;;;9.23;7.97;;;;;;;24.16;100.00;100386.50;5000826;28;20049;-74
2023/06/21 08:50:18;;;;;;;11.15;8.23;;;;;;;24.84;100.00;100089.09;5007489;28;20024;-74
2023/06/21 08:52:45;;;;;;;9.65;7.43;;;;;;;25.54;100.00;100061.09;4999348;28;20042;-74
2023/06/21 08:55:14;;;;;;;10.50;7.43;;;;;;;26.01;100.00;100061.75;4986801;28;20018;-75
2023/06/21 08:58:05;;;;;;;11.75;8.32;;;;;;;25.65;100.00;100086.50;4995547;28;20045;-75
2023/06/21 09:00:37;;;;;;;12.30;7.72;;;;;;;26.16;100.00;100149.22;4995606;28;20049;-74
2023/06/21 09:03:08;;;;;;;9.18;7.22;;;;;;;25.58;100.00;99968.47;5013930;28;20596;-74
2023/06/21 09:05:49;;;;;;;8.88;6.50;;;;;;;26.11;100.00;100125.44;4994969;28;20034;-74
2023/06/21 09:08:14;;;;;;;11.48;7.63;;;;;;;25.76;100.00;99773.72;5000324;28;20092;-75
2023/06/21 09:10:41;;;;;;;8.15;6.97;;;;;;;24.70;100.00;99839.63;5003856;28;20517;-75
2023/06/21 09:13:08;;;;;;;9.93;6.75;;;;;;;24.62;100.00;99984.81;5000797;28;20084;-75
2023/06/21 09:15:34;;;;;;;8.48;6.93;;;;;;;24.07;100.00;99875.44;5004942;28;20027;-74
2023/06/21 09:18:00;;;;;;;11.07;7.10;;;;;;;24.87;100.00;100149.69;4998636;28;20037;-74
2023/06/21 09:20:28;;;;;;;10.88;7.50;;;;;;;24.89;100.00;100218.47;4980721;28;20018;-74
2023/06/21 09:22:58;;;;;;;13.73;8.45;;;;;;;24.91;100.00;99989.69;5028038;28;20502;-74
2023/06/21 09:25:24;;;;;;;9.38;6.55;;;;;;;24.79;100.00;100083.59;5013862;28;20516;-74
2023/06/21 09:27:51;;;;;;;12.73;8.93;;;;;;;24.59;100.00;100110.91;4998830;28;20037;-74
2023/06/21 09:30:18;;;;;;;11.30;8.23;;;;;;;24.60;100.00;100206.13;5014928;28;20032;-74
2023/06/21 09:32:43;;;;;;;17.63;8.32;;;;;;;24.53;100.00;100272.97;4989643;28;20053;-74
2023/06/21 09:35:09;;;;;;;14.07;9.20;;;;;;;24.76;100.00;100231.53;5008597;28;20463;-75
2023/06/21 09:37:36;;;;;;;11.52;8.88;;;;;;;24.97;100.00;100384.50;4999178;28;20029;-75
2023/06/21 09:40:03;;;;;;;10.45;8.35;;;;;;;26.53;100.00;100233.59;5002561;28;20121;-75
2023/06/21 09:42:28;;;;;;;12.32;8.98;;;;;;;26.46;96.25;99932.03;4992826;28;20419;-75
2023/06/21 09:44:55;;;;;;;9.35;8.13;;;;;;;27.22;92.00;99935.09;4995898;28;20025;-75
2023/06/21 09:47:21;;;;;;;12.02;8.73;;;;;;;27.74;88.04;99831.81;4999759;28;20039;-75
2023/06/21 09:49:46;;;;;;;;;;;;;;;27.32;85.33;99644.50;5012967;28;20022;-74
2023/06/21 09:52:13;;;;;;;8.95;7.47;;;;;;;27.86;86.56;99904.63;4995489;28;20742;-75
2023/06/21 09:54:43;;;;;;;10.40;8.85;;;;;;;28.84;82.08;99838.66;4998804;28;20187;-75
2023/06/21 09:57:08;;;;;;;10.05;7.72;;;;;;;27.63;83.66;99835.88;4996768;28;20049;-74
2023/06/21 09:59:37;;;;;;;10.88;7.90;;;;;;;26.93;84.97;99809.97;4992296;28;20095;-74
2023/06/21 10:02:04;;;;;;;9.25;8.35;;;;;;;26.72;85.11;99845.00;5018312;28;20421;-74
2023/06/21 10:04:39;;;;;;;10.13;8.43;;;;;;;27.73;83.00;99958.28;5021587;28;20029;-74
2023/06/21 10:07:05;;;;;;;9.97;7.40;;;;;;;27.46;78.15;99577.94;5000743;28;20037;-75
2023/06/21 10:09:36;;;;;;;13.90;8.65;;;;;;;26.39;77.79;99425.34;5016047;28;20291;-74
2023/06/21 10:12:03;;;;;;;9.55;6.40;;;;;;;28.08;80.16;100006.34;5003278;28;20049;-75
2023/06/21 10:14:30;;;;;;;9.80;6.80;;;;;;;28.84;76.46;99890.84;4985972;28;20033;-74
2023/06/21 10:16:56;;;;;;;8.63;6.95;;;;;;;29.36;72.35;99677.03;5015547;28;20116;-75
2023/06/21 10:19:22;;;;;;;;;;;;;;;28.15;71.36;99339.25;5012903;28;20026;-74
2023/06/21 10:22:07;;;;;;;8.05;5.75;;;;;;;29.90;70.32;99728.44;5021136;28;20230;-74
2023/06/21 10:24:56;;;;;;;7.38;6.28;;;;;;;30.10;69.83;99733.41;4994072;28;20081;-75
2023/06/21 10:27:22;;;;;;;7.43;5.95;;;;;;;28.09;69.63;99371.47;4983491;28;20422;-75
2023/06/21 10:29:56;;;;;;;6.95;6.07;;;;;;;28.36;70.53;99638.69;5015635;28;20602;-75
2023/06/21 10:32:23;;;;;;;6.70;4.95;;;;;;;28.57;69.30;99634.38;5009800;28;20030;-75
2023/06/21 10:35:11;;;;;;;6.80;5.00;;;;;;;29.59;65.91;99525.75;4998849;28;20061;-74
2023/06/21 10:38:03;;;;;;;7.40;5.00;;;;;;;29.14;67.07;99517.66;5012586;28;20026;-75
2023/06/21 10:40:30;;;;;;;6.70;5.35;;;;;;;29.05;68.12;99665.94;5010835;28;20034;-75
2023/06/21 10:42:58;;;;;;;5.88;5.07;;;;;;;28.00;69.40;99532.44;5021111;28;20475;-75
2023/06/21 10:45:24;;;;;;;7.35;6.18;;;;;;;27.93;68.87;99521.91;4999745;28;20490;-74
2023/06/21 10:47:52;;;;;;;6.47;5.28;;;;;;;27.62;70.71;99570.22;5021438;28;20164;-74
2023/06/21 10:50:20;;;;;;;6.20;5.40;;;;;;;27.58;69.06;99383.63;4998949;28;20042;-75
2023/06/21 10:52:49;;;;;;;8.48;6.72;;;;;;;28.87;67.88;99711.72;4997681;28;20021;-74
2023/06/21 10:55:16;;;;;;;8.38;5.95;;;;;;;28.80;66.95;99557.53;4994635;28;20030;-74
2023/06/21 10:57:41;;;;;;;;;;;;;;;29.39;65.17;99522.44;5020197;28;20463;-75
2023/06/21 11:00:08;;;;;;;9.27;5.70;;;;;;;29.87;66.72;99842.69;5016512;28;19958;-74
2023/06/21 11:02:34;;;;;;;10.00;6.70;;;;;;;29.54;64.95;99554.19;5016800;28;20375;-74
2023/06/21 11:05:16;;;;;;;;;;;;;;;30.22;63.03;99564.91;5020929;28;20076;-74
2023/06/21 11:07:53;;;;;;;12.52;5.72;;;;;;;30.34;62.39;99539.50;5014932;28;19952;-74
2023/06/21 11:10:43;;;;;;;6.15;5.55;;;;;;;29.61;61.42;99265.00;5015958;28;20104;-74
2023/06/21 11:13:10;;;;;;;9.43;5.53;;;;;;;29.13;63.26;99384.97;4996966;28;20084;-74